Time;durP1;ratioP1;P1;durP2;ratioP2;P2;SDS_P1;SDS_P2;PMS_P1;PMS_P2;Temp;Humidity;BMP_temperature;BMP_pressure;BME280_temperature;BME280_humidity;BME280_pressure;Samples;Min_cycle;Max_cycle;Signal;HPM_P1;HPM_P2
2022/12/31 00:01:07;;;;;;;;;;;9.80;99.90;;;;;;5087322;28;19921;-68
2022/12/31 00:03:33;;;;;;;;;;;9.80;99.90;;;;;;5088365;28;19920;-68
2022/12/31 00:05:58;;;;;;;;;;;9.90;99.90;;;;;;5088075;28;19912;-68
2022/12/31 00:08:24;;;;;;;;;;;9.90;99.90;;;;;;5088125;28;19965;-68
2022/12/31 00:10:49;;;;;;;;;;;9.90;99.90;;;;;;5087264;28;20001;-68
2022/12/31 00:13:15;;;;;;;;;;;9.90;99.90;;;;;;5087331;28;19920;-68
2022/12/31 00:15:41;;;;;;;;;;;9.90;99.90;;;;;;5087535;28;19970;-68
2022/12/31 00:18:07;;;;;;;;;;;10.00;99.90;;;;;;5087953;28;19986;-68
2022/12/31 00:20:33;;;;;;;;;;;9.90;99.90;;;;;;5068869;28;19926;-68
2022/12/31 00:22:58;;;;;;;;;;;9.90;99.90;;;;;;5088027;28;19912;-68
2022/12/31 00:25:24;;;;;;;;;;;10.00;99.90;;;;;;5087705;28;20472;-68
2022/12/31 00:27:49;;;;;;;;;;;9.90;99.90;;;;;;5087806;28;19912;-68
2022/12/31 00:30:15;;;;;;;;;;;9.90;99.90;;;;;;5087309;28;19912;-68
2022/12/31 00:32:40;;;;;;;;;;;10.00;99.90;;;;;;5087122;28;20599;-68
2022/12/31 00:35:06;;;;;;;;;;;10.00;99.90;;;;;;5087241;28;20416;-68
2022/12/31 00:37:31;;;;;;;;;;;10.00;99.90;;;;;;5087404;28;19945;-68
2022/12/31 00:39:57;;;;;;;;;;;10.00;99.90;;;;;;5086989;28;19912;-68
2022/12/31 00:42:22;;;;;;;;;;;10.00;99.90;;;;;;5086946;28;20379;-68
2022/12/31 00:44:48;;;;;;;;;;;10.00;99.90;;;;;;5087220;28;19962;-68
2022/12/31 00:47:13;;;;;;;;;;;10.00;99.90;;;;;;5087355;28;19912;-68
2022/12/31 00:49:39;;;;;;;;;;;10.10;99.90;;;;;;5068458;28;19908;-68
2022/12/31 00:52:04;;;;;;;;;;;10.00;99.90;;;;;;5087512;28;19912;-68
2022/12/31 00:54:30;;;;;;;;;;;10.00;99.90;;;;;;5087224;28;20659;-68
2022/12/31 00:56:55;;;;;;;;;;;10.00;99.90;;;;;;5081677;28;19913;-68
2022/12/31 00:59:21;;;;;;;;;;;10.00;99.90;;;;;;5066555;28;20454;-68
2022/12/31 01:01:46;;;;;;;;;;;10.00;99.90;;;;;;5066985;28;20019;-68
2022/12/31 01:04:14;;;;;;;;;;;10.00;99.90;;;;;;5082403;28;19981;-68
2022/12/31 01:06:39;;;;;;;;;;;10.10;99.90;;;;;;5066389;28;19966;-68
2022/12/31 01:09:06;;;;;;;;;;;10.10;99.90;;;;;;5067013;28;20354;-68
2022/12/31 01:11:31;;;;;;;;;;;10.10;99.90;;;;;;5066746;28;19922;-68
2022/12/31 01:13:57;;;;;;;;;;;10.00;99.90;;;;;;5090404;28;19920;-68
2022/12/31 01:16:24;;;;;;;;;;;10.00;99.90;;;;;;5087138;28;19972;-68
2022/12/31 01:18:49;;;;;;;;;;;10.00;99.90;;;;;;5086682;28;19912;-68
2022/12/31 01:21:16;;;;;;;;;;;10.10;99.90;;;;;;5085210;28;19918;-68
2022/12/31 01:23:41;;;;;;;;;;;10.10;99.90;;;;;;5085331;28;20365;-68
2022/12/31 01:26:08;;;;;;;;;;;10.10;99.90;;;;;;5086590;28;19923;-68
2022/12/31 01:28:33;;;;;;;;;;;10.10;99.90;;;;;;5087011;28;19916;-68
2022/12/31 01:31:02;;;;;;;;;;;10.10;99.90;;;;;;5086590;28;19908;-68
2022/12/31 01:33:27;;;;;;;;;;;10.10;99.90;;;;;;5087000;28;19912;-68
2022/12/31 01:35:53;;;;;;;;;;;10.10;99.90;;;;;;5086549;28;20618;-68
2022/12/31 01:38:18;;;;;;;;;;;10.10;99.90;;;;;;5086581;28;19922;-68
2022/12/31 01:40:44;;;;;;;;;;;10.10;99.90;;;;;;5086206;28;20269;-68
2022/12/31 01:43:18;;;;;;;;;;;10.10;99.90;;;;;;5087152;28;19915;-68
2022/12/31 01:45:45;;;;;;;;;;;10.10;99.90;;;;;;5086591;28;19920;-68
2022/12/31 01:48:12;;;;;;;;;;;10.10;99.90;;;;;;5086761;28;20002;-68
2022/12/31 01:50:39;;;;;;;;;;;10.10;99.90;;;;;;5086135;28;19965;-68
2022/12/31 01:53:06;;;;;;;;;;;10.20;99.90;;;;;;5086713;28;19912;-68
2022/12/31 01:55:34;;;;;;;;;;;10.20;99.90;;;;;;5068179;28;19912;-68
2022/12/31 01:58:03;;;;;;;;;;;10.20;99.90;;;;;;5072114;28;19924;-68
2022/12/31 02:00:30;;;;;;;;;;;10.20;99.90;;;;;;5048230;28;19912;-68
2022/12/31 02:02:55;;;;;;;;;;;10.20;99.90;;;;;;5066911;28;19965;-68
2022/12/31 02:05:23;;;;;;;;;;;10.20;99.90;;;;;;5086309;28;19916;-68
2022/12/31 02:07:49;;;;;;;;;;;10.30;99.90;;;;;;5086459;28;19915;-68
2022/12/31 02:10:15;;;;;;;;;;;10.20;99.90;;;;;;5086377;28;19916;-68
2022/12/31 02:12:40;;;;;;;;;;;10.30;99.90;;;;;;5085250;28;19916;-68
2022/12/31 02:15:06;;;;;;;;;;;10.30;99.90;;;;;;5086070;28;19908;-68
2022/12/31 02:17:49;;;;;;;;;;;10.30;99.90;;;;;;5086365;28;19926;-68
2022/12/31 02:20:35;;;;;;;;;;;10.30;99.90;;;;;;5085223;28;19912;-68
2022/12/31 02:23:33;;;;;;;;;;;10.30;99.90;;;;;;5037114;28;19919;-68
2022/12/31 02:25:58;;;;;;;;;;;10.30;99.90;;;;;;5051908;28;19922;-68
2022/12/31 02:28:35;;;;;;;;;;;10.40;99.90;;;;;;5086642;28;19919;-68
2022/12/31 02:31:09;;;;;;;;;;;10.40;99.90;;;;;;5085122;28;19915;-68
2022/12/31 02:33:37;;;;;;;;;;;10.40;99.90;;;;;;5076202;28;19912;-68
2022/12/31 02:36:10;;;;;;;;;;;10.40;99.90;;;;;;5089401;28;20276;-68
2022/12/31 02:38:39;;;;;;;;;;;10.40;99.90;;;;;;5090085;28;19916;-68
2022/12/31 02:41:04;;;;;;;;;;;10.50;99.90;;;;;;5089503;28;20409;-68
2022/12/31 02:43:30;;;;;;;;;;;10.50;99.90;;;;;;5090127;28;19911;-68
2022/12/31 02:46:13;;;;;;;;;;;10.50;99.90;;;;;;5089198;28;19912;-68
2022/12/31 02:48:48;;;;;;;;;;;10.50;99.90;;;;;;5089814;28;19951;-68
2022/12/31 02:51:32;;;;;;;;;;;10.50;99.90;;;;;;5089255;28;19912;-67
2022/12/31 02:53:57;;;;;;;;;;;10.50;99.90;;;;;;5089588;28;19959;-68
2022/12/31 02:56:34;;;;;;;;;;;10.60;99.90;;;;;;5088763;28;20401;-68
2022/12/31 03:04:34;;;;;;;;;;;10.60;99.90;;;;;;5083367;28;19957;-68
2022/12/31 03:07:07;;;;;;;;;;;10.70;99.90;;;;;;5089548;28;20365;-68
2022/12/31 03:09:34;;;;;;;;;;;10.70;99.90;;;;;;5089399;28;19912;-68
2022/12/31 03:14:44;;;;;;;;;;;10.70;99.90;;;;;;5089450;28;19958;-68
2022/12/31 03:17:10;;;;;;;;;;;10.70;99.90;;;;;;5089085;28;19952;-68
2022/12/31 03:22:26;;;;;;;;;;;10.70;99.90;;;;;;5088505;28;19927;-68
2022/12/31 03:27:36;;;;;;;;;;;10.80;99.90;;;;;;5089242;28;19927;-67
2022/12/31 03:30:01;;;;;;;;;;;10.80;99.90;;;;;;5088851;28;19911;-68
2022/12/31 03:32:27;;;;;;;;;;;10.80;99.90;;;;;;5071068;28;19960;-68
2022/12/31 03:34:52;;;;;;;;;;;10.80;99.90;;;;;;5088777;28;19923;-68
2022/12/31 03:37:18;;;;;;;;;;;10.80;99.90;;;;;;5088172;28;20273;-68
2022/12/31 03:39:43;;;;;;;;;;;10.80;99.90;;;;;;5088389;28;19977;-68
2022/12/31 03:42:09;;;;;;;;;;;10.80;99.90;;;;;;5088536;28;19931;-68
2022/12/31 03:44:34;;;;;;;;;;;10.90;99.90;;;;;;5088049;28;19909;-68
2022/12/31 03:47:00;;;;;;;;;;;10.90;99.90;;;;;;5087719;28;19919;-68
2022/12/31 03:49:25;;;;;;;;;;;10.90;99.90;;;;;;5087780;28;20379;-67
2022/12/31 03:51:51;;;;;;;;;;;10.90;99.90;;;;;;5088431;28;19908;-68
2022/12/31 03:54:16;;;;;;;;;;;10.90;99.90;;;;;;5088099;28;19908;-68
2022/12/31 03:56:42;;;;;;;;;;;10.90;99.90;;;;;;5085119;28;19913;-68
2022/12/31 03:59:07;;;;;;;;;;;10.90;99.90;;;;;;5068202;28;20336;-69
2022/12/31 04:01:32;;;;;;;;;;;11.00;99.90;;;;;;5068206;28;20046;-68
2022/12/31 04:03:58;;;;;;;;;;;11.00;99.90;;;;;;5077368;28;20676;-68
2022/12/31 04:06:23;;;;;;;;;;;11.00;99.90;;;;;;5088616;28;19996;-68
2022/12/31 04:08:49;;;;;;;;;;;11.10;99.90;;;;;;5087981;28;20549;-68
2022/12/31 04:11:15;;;;;;;;;;;11.10;99.90;;;;;;5087537;28;19912;-67
2022/12/31 04:13:40;;;;;;;;;;;11.10;99.90;;;;;;5088092;28;20482;-68
2022/12/31 04:16:05;;;;;;;;;;;11.10;99.90;;;;;;5080009;28;19981;-68
2022/12/31 04:18:31;;;;;;;;;;;11.20;99.90;;;;;;5088366;28;19912;-68
2022/12/31 04:21:03;;;;;;;;;;;11.20;99.90;;;;;;5086692;28;19943;-68
2022/12/31 04:23:29;;;;;;;;;;;11.20;99.90;;;;;;5087781;28;20414;-68
2022/12/31 04:25:54;;;;;;;;;;;11.20;99.90;;;;;;5087397;28;19915;-68
2022/12/31 04:28:20;;;;;;;;;;;11.20;99.90;;;;;;5087833;28;19912;-68
2022/12/31 04:30:45;;;;;;;;;;;11.20;99.90;;;;;;5087339;28;19915;-68
2022/12/31 04:33:11;;;;;;;;;;;11.20;99.90;;;;;;5087964;28;19912;-68
2022/12/31 04:35:36;;;;;;;;;;;11.30;99.90;;;;;;5087769;28;19912;-68
2022/12/31 04:38:02;;;;;;;;;;;11.30;99.90;;;;;;5087758;28;19923;-68
2022/12/31 04:40:28;;;;;;;;;;;11.30;99.90;;;;;;5087486;28;19919;-68
2022/12/31 04:42:53;;;;;;;;;;;11.30;99.90;;;;;;5086845;28;19981;-68
2022/12/31 04:45:18;;;;;;;;;;;11.30;99.90;;;;;;5087182;28;19927;-68
2022/12/31 04:47:44;;;;;;;;;;;11.30;99.90;;;;;;5087007;28;19996;-68
2022/12/31 04:50:09;;;;;;;;;;;11.30;99.90;;;;;;5086598;28;19912;-68
2022/12/31 04:52:35;;;;;;;;;;;11.30;99.90;;;;;;5081401;28;19912;-68
2022/12/31 04:55:00;;;;;;;;;;;11.30;99.90;;;;;;5086957;28;19912;-68
2022/12/31 04:57:26;;;;;;;;;;;11.30;99.90;;;;;;5086523;28;19920;-68
2022/12/31 04:59:51;;;;;;;;;;;11.40;99.90;;;;;;5085703;28;19912;-68
2022/12/31 05:02:17;;;;;;;;;;;11.40;99.90;;;;;;5087293;28;19919;-68
2022/12/31 05:04:42;;;;;;;;;;;11.40;99.90;;;;;;5071570;28;19920;-68
2022/12/31 05:07:08;;;;;;;;;;;11.40;99.90;;;;;;5067252;28;20472;-68
2022/12/31 05:09:33;;;;;;;;;;;11.50;99.90;;;;;;5067041;28;19916;-68
2022/12/31 05:11:59;;;;;;;;;;;11.50;99.90;;;;;;5066880;28;20468;-68
2022/12/31 05:14:25;;;;;;;;;;;11.50;99.90;;;;;;5078558;28;19988;-68
2022/12/31 05:16:51;;;;;;;;;;;11.50;99.90;;;;;;5086557;28;19955;-68
2022/12/31 05:19:16;;;;;;;;;;;11.50;99.90;;;;;;5086832;28;20753;-68
2022/12/31 05:21:42;;;;;;;;;;;11.50;99.90;;;;;;5083238;28;19918;-68
2022/12/31 05:24:07;;;;;;;;;;;11.50;99.90;;;;;;5078965;28;19947;-68
2022/12/31 05:26:33;;;;;;;;;;;11.60;99.90;;;;;;5077440;28;19912;-68
2022/12/31 05:28:59;;;;;;;;;;;11.60;99.90;;;;;;5086978;28;19908;-68
2022/12/31 05:31:25;;;;;;;;;;;11.60;99.90;;;;;;5085388;28;19908;-68
2022/12/31 05:33:51;;;;;;;;;;;11.60;99.90;;;;;;5075836;28;20009;-68
2022/12/31 05:36:16;;;;;;;;;;;11.60;99.90;;;;;;5074146;28;20020;-68
2022/12/31 05:38:42;;;;;;;;;;;11.60;99.90;;;;;;5087154;28;20005;-68
2022/12/31 05:41:07;;;;;;;;;;;11.70;99.90;;;;;;5086601;28;19912;-68
2022/12/31 05:43:33;;;;;;;;;;;11.70;99.90;;;;;;5086600;28;20328;-68
2022/12/31 05:46:00;;;;;;;;;;;11.70;99.90;;;;;;5086719;28;19944;-68
2022/12/31 05:48:26;;;;;;;;;;;11.80;99.90;;;;;;5086710;28;19912;-68
2022/12/31 05:50:51;;;;;;;;;;;11.70;99.90;;;;;;5085214;28;20292;-68
2022/12/31 05:53:17;;;;;;;;;;;11.80;99.90;;;;;;5079179;28;20308;-68
2022/12/31 05:55:43;;;;;;;;;;;11.80;99.90;;;;;;5066613;28;19916;-68
2022/12/31 05:58:09;;;;;;;;;;;11.80;99.90;;;;;;5066465;28;20300;-68
2022/12/31 06:00:34;;;;;;;;;;;11.80;99.90;;;;;;5066281;28;19912;-68
2022/12/31 06:03:00;;;;;;;;;;;11.90;99.90;;;;;;5067823;28;19919;-68
2022/12/31 06:05:25;;;;;;;;;;;11.90;99.90;;;;;;5086914;28;19940;-67
2022/12/31 06:07:51;;;;;;;;;;;11.90;99.90;;;;;;5086139;28;19948;-68
2022/12/31 06:10:16;;;;;;;;;;;11.90;99.90;;;;;;5088826;28;19909;-68
2022/12/31 06:12:42;;;;;;;;;;;11.90;99.90;;;;;;5090834;28;19954;-68
2022/12/31 06:15:07;;;;;;;;;;;11.90;99.90;;;;;;5090683;28;20081;-68
2022/12/31 06:17:33;;;;;;;;;;;12.00;99.90;;;;;;5090578;28;19920;-68
2022/12/31 06:19:58;;;;;;;;;;;12.00;99.90;;;;;;5090089;28;19912;-67
2022/12/31 06:22:24;;;;;;;;;;;12.00;99.90;;;;;;5088950;28;19919;-68
2022/12/31 06:24:49;;;;;;;;;;;12.00;99.90;;;;;;5089785;28;19912;-68
2022/12/31 06:27:15;;;;;;;;;;;12.00;99.90;;;;;;5090391;28;19994;-67
2022/12/31 06:29:40;;;;;;;;;;;12.00;99.90;;;;;;5089918;28;20273;-68
2022/12/31 06:32:06;;;;;;;;;;;12.10;99.90;;;;;;5089903;28;19908;-68
2022/12/31 06:34:31;;;;;;;;;;;12.10;99.90;;;;;;5089974;28;19908;-67
2022/12/31 06:36:57;;;;;;;;;;;12.10;99.90;;;;;;5089712;28;20011;-68
2022/12/31 06:39:22;;;;;;;;;;;12.10;99.90;;;;;;5089779;28;19924;-68
2022/12/31 06:41:48;;;;;;;;;;;12.10;99.90;;;;;;5089347;28;20479;-68
2022/12/31 06:44:13;;;;;;;;;;;12.10;99.90;;;;;;5090080;28;20046;-68
2022/12/31 06:46:39;;;;;;;;;;;12.10;99.90;;;;;;5090013;28;19912;-68
2022/12/31 06:49:04;;;;;;;;;;;12.20;99.90;;;;;;5090172;28;19923;-68
2022/12/31 06:51:30;;;;;;;;;;;12.20;99.90;;;;;;5089830;28;20289;-67
2022/12/31 06:53:55;;;;;;;;;;;12.20;99.90;;;;;;5089857;28;20425;-68
2022/12/31 06:56:23;;;;;;;;;;;12.20;99.90;;;;;;5088836;28;20364;-68
2022/12/31 06:58:49;;;;;;;;;;;12.20;99.90;;;;;;5069115;28;19919;-68
2022/12/31 07:01:33;;;;;;;;;;;12.20;99.90;;;;;;5068825;28;19961;-67
2022/12/31 07:04:08;;;;;;;;;;;12.20;99.90;;;;;;5060596;28;19908;-68
2022/12/31 07:06:38;;;;;;;;;;;12.30;99.90;;;;;;5089306;28;19923;-68
2022/12/31 07:09:09;;;;;;;;;;;12.20;99.90;;;;;;5089935;28;20373;-68
2022/12/31 07:11:39;;;;;;;;;;;12.20;99.90;;;;;;5089139;28;20392;-68
2022/12/31 07:14:23;;;;;;;;;;;12.30;99.90;;;;;;5088389;28;20010;-68
2022/12/31 07:16:49;;;;;;;;;;;12.30;99.90;;;;;;5070681;28;19930;-68
2022/12/31 07:19:32;;;;;;;;;;;12.30;99.90;;;;;;5088876;28;19920;-68
2022/12/31 07:21:58;;;;;;;;;;;12.30;99.90;;;;;;5084978;28;19916;-68
2022/12/31 07:24:24;;;;;;;;;;;12.30;99.90;;;;;;5088687;28;19999;-68
2022/12/31 07:26:49;;;;;;;;;;;12.40;99.90;;;;;;5085899;28;19934;-68
2022/12/31 07:29:33;;;;;;;;;;;12.40;99.90;;;;;;5070512;28;19985;-68
2022/12/31 07:32:17;;;;;;;;;;;12.40;99.90;;;;;;5086485;28;19916;-68
2022/12/31 07:34:58;;;;;;;;;;;12.40;99.90;;;;;;5087074;28;20003;-68
2022/12/31 07:37:41;;;;;;;;;;;12.40;99.90;;;;;;5089081;28;19920;-68
2022/12/31 07:40:25;;;;;;;;;;;12.40;99.90;;;;;;5088846;28;20014;-68
2022/12/31 07:43:10;;;;;;;;;;;12.40;99.90;;;;;;5089113;28;20515;-68
2022/12/31 07:45:55;;;;;;;;;;;12.40;99.90;;;;;;5050659;28;19917;-68
2022/12/31 07:48:22;;;;;;;;;;;12.50;99.90;;;;;;5068864;28;19920;-67
2022/12/31 07:50:48;;;;;;;;;;;12.40;99.90;;;;;;5068127;28;19912;-68
2022/12/31 07:53:14;;;;;;;;;;;12.50;99.90;;;;;;5087341;28;19998;-67
2022/12/31 07:55:39;;;;;;;;;;;12.50;99.90;;;;;;5088417;28;20440;-68
2022/12/31 07:58:16;;;;;;;;;;;12.50;99.90;;;;;;5088166;28;20432;-68
2022/12/31 08:00:42;;;;;;;;;;;12.50;99.90;;;;;;5085277;28;19955;-68
2022/12/31 08:03:19;;;;;;;;;;;12.60;99.90;;;;;;5087876;28;20336;-68
2022/12/31 08:05:54;;;;;;;;;;;12.50;99.90;;;;;;5085496;28;19911;-68
2022/12/31 08:08:25;;;;;;;;;;;12.50;99.90;;;;;;5088044;28;19908;-68
2022/12/31 08:11:07;;;;;;;;;;;12.50;99.90;;;;;;5087006;28;19919;-68
2022/12/31 08:13:32;;;;;;;;;;;12.60;99.90;;;;;;5086516;28;20705;-68
2022/12/31 08:15:58;;;;;;;;;;;12.50;99.90;;;;;;5069803;28;19912;-68
2022/12/31 08:18:24;;;;;;;;;;;12.60;99.90;;;;;;5088142;28;20003;-68
2022/12/31 08:21:01;;;;;;;;;;;12.60;99.90;;;;;;5086810;28;19913;-68
2022/12/31 08:23:34;;;;;;;;;;;12.60;99.90;;;;;;5086439;28;20386;-68
2022/12/31 08:26:03;;;;;;;;;;;12.60;99.90;;;;;;5087892;28;19912;-68
2022/12/31 08:28:31;;;;;;;;;;;12.60;99.90;;;;;;5087362;28;20586;-68
2022/12/31 08:30:59;;;;;;;;;;;12.60;99.90;;;;;;5087197;28;19930;-68
2022/12/31 08:33:29;;;;;;;;;;;12.60;99.90;;;;;;5087945;28;19918;-68
2022/12/31 08:35:54;;;;;;;;;;;12.60;99.90;;;;;;5087716;28;19999;-68
2022/12/31 08:38:33;;;;;;;;;;;12.60;99.90;;;;;;5087645;28;20375;-68
2022/12/31 08:40:58;;;;;;;;;;;12.70;99.90;;;;;;5087469;28;20385;-68
2022/12/31 08:43:36;;;;;;;;;;;12.70;99.90;;;;;;5087656;28;19926;-68
2022/12/31 08:46:05;;;;;;;;;;;12.70;99.90;;;;;;5087418;28;19908;-68
2022/12/31 08:48:41;;;;;;;;;;;12.70;99.90;;;;;;5086823;28;19920;-68
2022/12/31 08:51:11;;;;;;;;;;;12.70;99.90;;;;;;5084468;28;19915;-68
2022/12/31 08:53:37;;;;;;;;;;;12.70;99.90;;;;;;5087138;28;19934;-68
2022/12/31 08:56:17;;;;;;;;;;;12.80;99.90;;;;;;5086745;28;19916;-68
2022/12/31 08:59:01;;;;;;;;;;;12.80;99.90;;;;;;5086964;28;19941;-68
2022/12/31 09:01:28;;;;;;;;;;;12.80;99.90;;;;;;5084195;28;19912;-68
2022/12/31 09:04:07;;;;;;;;;;;12.80;99.90;;;;;;5086396;28;19916;-68
2022/12/31 09:06:36;;;;;;;;;;;12.80;99.90;;;;;;5084186;28;20285;-68
2022/12/31 09:09:18;;;;;;;;;;;12.80;99.90;;;;;;5086535;28;19962;-68
2022/12/31 09:12:02;;;;;;;;;;;12.80;99.90;;;;;;5086219;28;19912;-68
2022/12/31 09:14:39;;;;;;;;;;;12.80;99.90;;;;;;5086070;28;19920;-68
2022/12/31 09:17:13;;;;;;;;;;;12.90;99.90;;;;;;5085363;28;19908;-68
2022/12/31 09:19:39;;;;;;;;;;;12.90;99.90;;;;;;5086789;28;20395;-68
2022/12/31 09:22:04;;;;;;;;;;;12.90;99.90;;;;;;5086095;28;20010;-68
2022/12/31 09:24:30;;;;;;;;;;;12.90;99.90;;;;;;5086116;28;19920;-68
2022/12/31 09:27:12;;;;;;;;;;;12.90;99.90;;;;;;5086327;28;19916;-68
2022/12/31 09:30:03;;;;;;;;;;;12.90;99.90;;;;;;5086192;28;19912;-68
2022/12/31 09:32:36;;;;;;;;;;;12.90;99.90;;;;;;5081554;28;19912;-68
2022/12/31 09:35:14;;;;;;;;;;;13.00;99.90;;;;;;5085899;28;19998;-68
2022/12/31 09:37:39;;;;;;;;;;;13.00;99.90;;;;;;5086920;28;19916;-68
2022/12/31 09:40:28;;;;;;;;;;;13.00;99.90;;;;;;5086506;28;20528;-68
2022/12/31 09:43:09;;;;;;;;;;;13.00;99.90;;;;;;5078297;28;19959;-67
2022/12/31 09:45:53;;;;;;;;;;;13.00;99.90;;;;;;5071499;28;19916;-68
2022/12/31 09:48:37;;;;;;;;;;;13.00;99.90;;;;;;5073353;28;19913;-68
2022/12/31 09:51:15;;;;;;;;;;;13.00;99.90;;;;;;5056041;28;20325;-68
2022/12/31 09:53:50;;;;;;;;;;;13.00;99.90;;;;;;5093836;28;19914;-68
2022/12/31 09:56:24;;;;;;;;;;;13.00;99.90;;;;;;5092913;28;19912;-68
2022/12/31 09:58:50;;;;;;;;;;;13.00;99.90;;;;;;5073421;28;19920;-68
2022/12/31 10:01:25;;;;;;;;;;;13.00;99.90;;;;;;5073154;28;19978;-68
2022/12/31 10:04:05;;;;;;;;;;;13.10;99.90;;;;;;5080319;28;19922;-68
2022/12/31 10:06:36;;;;;;;;;;;13.10;99.90;;;;;;5092026;28;19916;-68
2022/12/31 10:09:11;;;;;;;;;;;13.10;99.90;;;;;;5090787;28;20005;-68
2022/12/31 10:11:55;;;;;;;;;;;13.10;99.90;;;;;;5092464;28;19912;-68
2022/12/31 10:14:41;;;;;;;;;;;13.10;99.90;;;;;;5091532;28;19920;-68
2022/12/31 10:17:06;;;;;;;;;;;13.10;99.90;;;;;;5092605;28;19973;-68
2022/12/31 10:19:51;;;;;;;;;;;13.10;99.90;;;;;;5092335;28;20399;-68
2022/12/31 10:22:16;;;;;;;;;;;13.10;99.90;;;;;;5090243;28;19909;-68
2022/12/31 10:25:03;;;;;;;;;;;13.10;99.90;;;;;;5092451;28;20017;-68
2022/12/31 10:27:44;;;;;;;;;;;13.10;99.90;;;;;;5092369;28;20078;-68
2022/12/31 10:30:20;;;;;;;;;;;13.10;99.90;;;;;;5092673;28;19966;-68
2022/12/31 10:33:04;;;;;;;;;;;13.20;99.90;;;;;;5074891;28;19915;-68
2022/12/31 10:35:46;;;;;;;;;;;13.20;99.90;;;;;;5087528;28;19916;-68
2022/12/31 10:38:31;;;;;;;;;;;13.20;99.90;;;;;;5074649;28;19920;-68
2022/12/31 10:40:59;;;;;;;;;;;13.30;99.90;;;;;;5089786;28;19919;-68
2022/12/31 10:43:43;;;;;;;;;;;13.30;99.90;;;;;;5092672;28;19912;-68
2022/12/31 10:46:21;;;;;;;;;;;13.40;99.90;;;;;;5091058;28;20367;-68
2022/12/31 10:49:05;;;;;;;;;;;13.30;99.90;;;;;;5091746;28;19961;-68
2022/12/31 10:51:52;;;;;;;;;;;13.40;99.90;;;;;;5091123;28;19912;-68
2022/12/31 10:54:36;;;;;;;;;;;13.40;99.90;;;;;;5090345;28;19920;-68
2022/12/31 10:57:06;;;;;;;;;;;13.40;99.90;;;;;;5087973;28;20258;-68
2022/12/31 10:59:51;;;;;;;;;;;13.40;99.90;;;;;;5088886;28;19999;-68
2022/12/31 11:02:28;;;;;;;;;;;13.40;99.90;;;;;;5068613;28;19916;-68
2022/12/31 11:05:12;;;;;;;;;;;13.40;99.90;;;;;;5086554;28;19966;-68
2022/12/31 11:07:50;;;;;;;;;;;13.40;99.90;;;;;;5087042;28;20375;-68
2022/12/31 11:10:25;;;;;;;;;;;13.50;99.90;;;;;;5086133;28;19977;-68
2022/12/31 11:13:05;;;;;;;;;;;13.50;99.90;;;;;;5089002;28;19916;-68
2022/12/31 11:15:34;;;;;;;;;;;13.50;99.90;;;;;;5087237;28;19912;-68
2022/12/31 11:18:08;;;;;;;;;;;13.50;99.90;;;;;;5088602;28;19923;-68
2022/12/31 11:20:59;;;;;;;;;;;13.50;99.90;;;;;;5077070;28;19920;-68
2022/12/31 11:23:43;;;;;;;;;;;13.50;99.90;;;;;;5083494;28;19913;-68
2022/12/31 11:26:27;;;;;;;;;;;13.60;99.90;;;;;;5084863;28;19912;-68
2022/12/31 11:28:58;;;;;;;;;;;13.60;99.90;;;;;;5085434;28;19947;-68
2022/12/31 11:31:42;;;;;;;;;;;13.60;99.90;;;;;;5085496;28;20005;-68
2022/12/31 11:34:23;;;;;;;;;;;13.60;99.90;;;;;;5089157;28;19935;-68
2022/12/31 11:37:07;;;;;;;;;;;13.70;99.90;;;;;;5089038;28;20280;-68
2022/12/31 11:39:33;;;;;;;;;;;13.70;99.90;;;;;;5088338;28;20011;-68
2022/12/31 11:42:06;;;;;;;;;;;13.70;99.90;;;;;;5088510;28;19998;-68
2022/12/31 11:44:44;;;;;;;;;;;13.70;99.90;;;;;;5088992;28;19912;-68
2022/12/31 11:47:28;;;;;;;;;;;13.70;99.90;;;;;;5088891;28;19919;-68
2022/12/31 11:49:59;;;;;;;;;;;13.70;99.90;;;;;;5088260;28;19915;-68
2022/12/31 11:52:32;;;;;;;;;;;13.70;99.90;;;;;;5085750;28;19912;-68
2022/12/31 11:55:16;;;;;;;;;;;13.70;99.90;;;;;;5088439;28;20388;-68
2022/12/31 11:57:47;;;;;;;;;;;13.70;99.90;;;;;;5088404;28;20040;-68
2022/12/31 12:00:17;;;;;;;;;;;13.70;99.90;;;;;;5087696;28;19919;-68
2022/12/31 12:02:53;;;;;;;;;;;13.70;99.90;;;;;;5068379;28;20281;-68
2022/12/31 12:05:21;;;;;;;;;;;13.70;99.90;;;;;;5050373;28;19947;-68
2022/12/31 12:07:47;;;;;;;;;;;13.70;99.90;;;;;;5069090;28;20023;-68
2022/12/31 12:10:26;;;;;;;;;;;13.70;99.90;;;;;;5068532;28;20300;-68
2022/12/31 12:12:53;;;;;;;;;;;13.70;99.90;;;;;;5086343;28;19916;-68
2022/12/31 12:15:25;;;;;;;;;;;13.60;99.90;;;;;;5087599;28;19916;-68
2022/12/31 12:17:52;;;;;;;;;;;13.70;99.90;;;;;;5087218;28;19922;-68
2022/12/31 12:20:20;;;;;;;;;;;13.60;99.90;;;;;;5086605;28;19951;-68
2022/12/31 12:22:53;;;;;;;;;;;13.70;99.90;;;;;;5087746;28;19908;-68
2022/12/31 12:25:21;;;;;;;;;;;13.60;99.90;;;;;;5087970;28;19923;-68
2022/12/31 12:27:46;;;;;;;;;;;13.60;99.90;;;;;;5087831;28;20365;-68
2022/12/31 12:30:23;;;;;;;;;;;13.60;99.90;;;;;;5086679;28;19915;-68
2022/12/31 12:32:51;;;;;;;;;;;13.60;99.90;;;;;;5085949;28;19929;-68
2022/12/31 12:35:22;;;;;;;;;;;13.60;99.90;;;;;;5086558;28;20682;-68
2022/12/31 12:37:56;;;;;;;;;;;13.60;99.90;;;;;;5087929;28;19923;-69
2022/12/31 12:40:25;;;;;;;;;;;13.60;99.90;;;;;;5085692;28;19999;-68
2022/12/31 12:42:51;;;;;;;;;;;13.60;99.90;;;;;;5087412;28;20025;-68
2022/12/31 12:45:25;;;;;;;;;;;13.60;99.90;;;;;;5087625;28;19919;-68
2022/12/31 12:48:01;;;;;;;;;;;13.50;99.90;;;;;;5087443;28;19915;-69
2022/12/31 12:50:38;;;;;;;;;;;13.50;99.90;;;;;;5087234;28;19916;-69
2022/12/31 12:53:07;;;;;;;;;;;13.50;99.90;;;;;;5085868;28;20419;-69
2022/12/31 12:55:37;;;;;;;;;;;13.50;99.90;;;;;;5069348;28;19919;-69
2022/12/31 12:58:30;;;;;;;;;;;13.50;99.90;;;;;;5072579;28;19923;-69
2022/12/31 13:01:14;;;;;;;;;;;13.40;99.90;;;;;;5067046;28;19913;-69
2022/12/31 13:03:48;;;;;;;;;;;13.40;99.90;;;;;;5080221;28;19918;-73
2022/12/31 13:06:16;;;;;;;;;;;13.40;99.90;;;;;;5087965;28;20133;-73
2022/12/31 13:09:00;;;;;;;;;;;13.40;99.90;;;;;;5087418;28;19922;-70
2022/12/31 13:11:28;;;;;;;;;;;13.60;99.90;;;;;;5087388;28;19920;-72
2022/12/31 13:14:14;;;;;;;;;;;13.60;99.90;;;;;;5087280;28;19926;-71
2022/12/31 13:16:51;;;;;;;;;;;13.60;99.90;;;;;;5053754;28;20007;-71
2022/12/31 13:19:37;;;;;;;;;;;13.60;99.90;;;;;;5084836;28;20024;-71
2022/12/31 13:22:02;;;;;;;;;;;13.50;99.90;;;;;;5071742;28;19911;-71
2022/12/31 13:24:37;;;;;;;;;;;13.50;99.90;;;;;;5085477;28;19920;-71
2022/12/31 13:27:06;;;;;;;;;;;13.50;99.90;;;;;;5085575;28;19947;-71
2022/12/31 13:29:33;;;;;;;;;;;13.50;99.90;;;;;;5082397;28;19912;-70
2022/12/31 13:32:00;;;;;;;;;;;13.50;99.90;;;;;;5086245;28;19916;-71
2022/12/31 13:34:28;;;;;;;;;;;13.50;99.90;;;;;;5083536;28;19916;-71
2022/12/31 13:36:56;;;;;;;;;;;13.50;99.90;;;;;;5084578;28;19916;-69
2022/12/31 13:39:27;;;;;;;;;;;13.50;99.90;;;;;;5085207;28;20627;-69
2022/12/31 13:42:16;;;;;;;;;;;13.50;99.90;;;;;;5085047;28;19916;-69
2022/12/31 13:44:41;;;;;;;;;;;13.40;99.90;;;;;;5069606;28;19982;-69
2022/12/31 13:47:25;;;;;;;;;;;13.40;99.90;;;;;;5085474;28;19916;-70
2022/12/31 13:49:57;;;;;;;;;;;13.40;99.90;;;;;;5066907;28;20422;-70
2022/12/31 13:52:23;;;;;;;;;;;13.40;99.90;;;;;;5084642;28;19912;-70
2022/12/31 13:54:51;;;;;;;;;;;13.40;99.90;;;;;;5085443;28;19912;-69
2022/12/31 13:57:33;;;;;;;;;;;13.40;99.90;;;;;;5085690;28;19915;-69
2022/12/31 14:00:02;;;;;;;;;;;13.40;99.90;;;;;;5082810;28;19912;-70
2022/12/31 14:02:42;;;;;;;;;;;13.40;99.90;;;;;;5085378;28;19915;-70
2022/12/31 14:05:10;;;;;;;;;;;13.50;99.90;;;;;;5085726;28;19912;-69
2022/12/31 14:07:51;;;;;;;;;;;13.50;99.90;;;;;;5085935;28;19983;-69
2022/12/31 14:10:19;;;;;;;;;;;13.40;99.90;;;;;;5082608;28;19912;-69
2022/12/31 14:12:47;;;;;;;;;;;13.50;99.90;;;;;;5084353;28;19923;-69
2022/12/31 14:15:21;;;;;;;;;;;13.50;99.90;;;;;;5084868;28;19916;-69
2022/12/31 14:17:47;;;;;;;;;;;13.50;99.90;;;;;;5084116;28;19930;-69
2022/12/31 14:20:21;;;;;;;;;;;13.50;99.90;;;;;;5084454;28;19908;-69
2022/12/31 14:22:46;;;;;;;;;;;13.50;99.90;;;;;;5083652;28;19946;-69
2022/12/31 14:25:19;;;;;;;;;;;13.50;99.90;;;;;;5085040;28;19912;-69
2022/12/31 14:27:46;;;;;;;;;;;13.50;99.90;;;;;;5082732;28;20015;-69
2022/12/31 14:30:11;;;;;;;;;;;13.50;99.90;;;;;;5084004;28;19920;-69
2022/12/31 14:32:41;;;;;;;;;;;13.50;99.90;;;;;;5089069;28;19912;-69
2022/12/31 14:35:16;;;;;;;;;;;13.40;99.90;;;;;;5087658;28;20343;-69
2022/12/31 14:38:05;;;;;;;;;;;13.40;99.90;;;;;;5087798;28;19920;-69
2022/12/31 14:40:44;;;;;;;;;;;13.50;99.90;;;;;;5079965;28;19912;-69
2022/12/31 14:43:18;;;;;;;;;;;13.40;99.90;;;;;;5088804;28;19924;-69
2022/12/31 14:46:13;;;;;;;;;;;13.40;99.90;;;;;;5069342;28;19916;-69
2022/12/31 14:49:11;;;;;;;;;;;13.40;99.90;;;;;;5031746;28;19986;-69
2022/12/31 14:51:37;;;;;;;;;;;13.40;99.90;;;;;;5049151;28;19908;-69
2022/12/31 14:54:02;;;;;;;;;;;13.40;99.90;;;;;;5088505;28;20369;-69